Time;durP1;ratioP1;P1;durP2;ratioP2;P2;SDS_P1;SDS_P2;PMS_P1;PMS_P2;Temp;Humidity;BMP_temperature;BMP_pressure;BME280_temperature;BME280_humidity;BME280_pressure;Samples;Min_cycle;Max_cycle;Signal;HPM_P1;HPM_P2
2021/05/08 00:01:15;;;;;;;12.75;6.45;;;;;;;7.84;58.96;101712.56;4954502;28;20050;-55
2021/05/08 00:03:43;;;;;;;13.02;6.78;;;;;;;7.81;59.71;101706.75;4953452;28;20050;-53
2021/05/08 00:06:12;;;;;;;11.45;6.57;;;;;;;7.77;59.22;101708.25;4954059;28;20043;-53
2021/05/08 00:08:39;;;;;;;9.57;6.57;;;;;;;7.79;59.75;101704.28;4954111;28;20793;-55
2021/05/08 00:11:06;;;;;;;10.60;6.50;;;;;;;7.83;59.52;101712.78;4954018;28;20051;-52
2021/05/08 00:13:33;;;;;;;11.10;6.75;;;;;;;7.85;59.21;101708.78;4954075;28;20071;-53
2021/05/08 00:16:00;;;;;;;10.77;6.85;;;;;;;7.87;59.15;101705.88;4954138;28;20039;-53
2021/05/08 00:18:28;;;;;;;10.25;6.95;;;;;;;7.84;59.15;101700.88;4953617;28;20483;-55
2021/05/08 00:20:55;;;;;;;10.43;6.85;;;;;;;7.78;59.79;101708.03;4953965;28;20050;-53
2021/05/08 00:23:22;;;;;;;15.18;7.30;;;;;;;7.72;59.28;101699.97;4953854;28;20139;-52
2021/05/08 00:25:50;;;;;;;11.32;6.90;;;;;;;7.68;59.21;101703.16;4953507;28;20422;-53
2021/05/08 00:28:21;;;;;;;11.32;7.05;;;;;;;7.62;59.85;101689.66;4956273;28;20103;-53
2021/05/08 00:30:48;;;;;;;11.23;6.55;;;;;;;7.46;60.20;101686.53;4957985;28;20122;-53
2021/05/08 00:33:16;;;;;;;12.68;6.75;;;;;;;7.46;59.99;101685.69;4957335;28;20047;-53
2021/05/08 00:35:43;;;;;;;10.60;6.70;;;;;;;7.44;60.70;101690.50;4956668;29;20059;-51
2021/05/08 00:38:10;;;;;;;10.18;6.68;;;;;;;7.47;60.34;101676.50;4957762;28;20443;-55
2021/05/08 00:40:37;;;;;;;11.57;6.68;;;;;;;7.55;59.38;101678.91;4957749;28;20498;-53
2021/05/08 00:43:05;;;;;;;13.05;6.82;;;;;;;7.62;59.83;101679.63;4957563;28;20059;-54
2021/05/08 00:45:32;;;;;;;11.45;7.50;;;;;;;7.71;58.79;101682.06;4957635;28;20067;-53
2021/05/08 00:48:17;;;;;;;11.38;7.18;;;;;;;7.80;58.32;101678.00;4957083;28;20054;-53
2021/05/08 00:50:45;;;;;;;15.00;7.38;;;;;;;7.82;58.31;101673.97;4972440;28;20055;-53
2021/05/08 00:53:13;;;;;;;11.80;7.13;;;;;;;7.83;58.36;101670.19;4957394;28;20050;-56
2021/05/08 00:55:41;;;;;;;11.95;7.85;;;;;;;7.83;58.27;101662.06;4973215;28;20160;-53
2021/05/08 00:58:09;;;;;;;12.02;7.22;;;;;;;7.83;57.33;101667.50;4958087;28;20050;-54
2021/05/08 01:00:37;;;;;;;12.90;7.45;;;;;;;7.84;57.21;101662.88;4972205;28;20054;-52
2021/05/08 01:03:07;;;;;;;11.52;7.53;;;;;;;7.84;57.35;101663.75;4958314;28;20059;-53
2021/05/08 01:05:36;;;;;;;13.32;6.97;;;;;;;7.82;57.19;101665.84;4958057;28;20039;-51
2021/05/08 01:08:07;;;;;;;13.25;6.97;;;;;;;7.77;57.83;101657.56;4957259;28;20062;-54
2021/05/08 01:10:36;;;;;;;13.77;7.35;;;;;;;7.81;58.17;101655.22;4971828;28;20422;-54
2021/05/08 01:13:03;;;;;;;12.98;7.57;;;;;;;7.85;57.85;101653.72;4971973;28;20410;-56
2021/05/08 01:15:30;;;;;;;13.00;7.22;;;;;;;7.86;56.83;101652.63;4971078;28;20048;-56
2021/05/08 01:17:58;;;;;;;10.65;6.25;;;;;;;7.87;57.24;101654.31;4971849;28;20106;-54
2021/05/08 01:20:29;;;;;;;11.50;7.00;;;;;;;7.89;57.10;101654.91;4971538;28;20054;-55
2021/05/08 01:23:00;;;;;;;10.48;6.43;;;;;;;7.90;57.37;101667.41;4971700;28;20051;-53
2021/05/08 01:25:28;;;;;;;10.60;6.22;;;;;;;7.93;57.32;101656.09;4971652;28;20075;-55
2021/05/08 01:27:58;;;;;;;10.20;6.30;;;;;;;7.97;56.47;101653.75;4957179;28;20450;-53
2021/05/08 01:30:32;;;;;;;11.02;6.22;;;;;;;7.94;57.32;101652.34;4956259;28;20392;-55
2021/05/08 01:33:02;;;;;;;10.02;5.60;;;;;;;7.93;56.87;101660.69;4963034;28;20065;-54
2021/05/08 01:35:30;;;;;;;11.23;6.28;;;;;;;7.95;56.54;101653.16;4955347;28;20078;-54
2021/05/08 01:37:59;;;;;;;10.45;6.05;;;;;;;7.86;56.97;101656.19;4955597;28;20054;-56
2021/05/08 01:40:35;;;;;;;9.15;5.60;;;;;;;7.85;57.27;101653.72;4954297;28;20107;-52
2021/05/08 01:43:04;;;;;;;9.93;6.05;;;;;;;7.89;56.75;101644.06;4955584;28;20062;-52
2021/05/08 01:45:32;;;;;;;10.65;5.88;;;;;;;7.93;57.16;101637.09;4956233;28;20051;-53
2021/05/08 01:48:05;;;;;;;9.23;5.90;;;;;;;7.96;57.46;101633.09;4955272;28;20039;-53
2021/05/08 01:50:33;;;;;;;10.00;5.50;;;;;;;7.95;56.41;101634.97;4955391;28;20054;-55
2021/05/08 01:53:00;;;;;;;12.98;5.80;;;;;;;7.92;56.61;101621.06;4956087;28;20486;-55
2021/05/08 01:55:28;;;;;;;9.57;5.53;;;;;;;7.89;57.11;101627.78;4956526;28;20055;-54
2021/05/08 01:58:00;;;;;;;10.77;6.05;;;;;;;7.91;56.65;101620.22;4970784;28;20427;-52
2021/05/08 02:00:35;;;;;;;9.70;5.93;;;;;;;7.92;56.50;101616.47;4956094;28;20059;-55
2021/05/08 02:03:04;;;;;;;8.57;5.32;;;;;;;7.94;56.30;101627.06;4956068;28;20418;-50
2021/05/08 02:05:38;;;;;;;10.52;5.85;;;;;;;7.94;56.01;101618.91;4955222;28;20043;-53
2021/05/08 02:08:12;;;;;;;10.65;5.88;;;;;;;7.95;56.23;101621.41;4970826;28;20798;-54
2021/05/08 02:10:43;;;;;;;10.15;5.93;;;;;;;7.98;56.26;101622.84;4970999;28;20048;-53
2021/05/08 02:13:13;;;;;;;9.68;6.00;;;;;;;8.00;55.65;101618.84;4955915;28;20060;-53
2021/05/08 02:15:44;;;;;;;9.85;6.20;;;;;;;7.99;56.36;101619.91;4956252;28;20047;-53
2021/05/08 02:18:12;;;;;;;10.32;6.22;;;;;;;7.99;56.24;101611.75;4955025;29;20528;-56
2021/05/08 02:20:42;;;;;;;9.82;6.18;;;;;;;7.98;56.35;101603.84;4955714;28;20047;-55
2021/05/08 02:23:13;;;;;;;10.68;5.90;;;;;;;7.97;56.16;101596.78;4970857;28;20410;-53
2021/05/08 02:25:43;;;;;;;11.98;6.15;;;;;;;7.95;56.24;101593.47;4970376;28;20050;-56
2021/05/08 02:28:10;;;;;;;12.98;6.10;;;;;;;7.94;56.45;101600.78;4955326;28;20051;-52
2021/05/08 02:30:40;;;;;;;13.88;6.05;;;;;;;7.93;56.52;101601.00;4955833;28;20482;-54
2021/05/08 02:33:08;;;;;;;12.60;6.20;;;;;;;7.92;56.33;101594.75;4955610;28;20051;-56
2021/05/08 02:35:36;;;;;;;8.95;5.80;;;;;;;7.93;55.69;101596.38;4954236;28;20047;-51
2021/05/08 02:38:05;;;;;;;11.05;6.20;;;;;;;7.94;56.30;101587.22;4954653;29;20448;-54
2021/05/08 02:40:36;;;;;;;9.93;5.68;;;;;;;7.96;56.21;101584.25;4955456;28;20503;-56
2021/05/08 02:43:10;;;;;;;11.13;5.97;;;;;;;7.98;55.37;101585.66;4955153;28;20043;-55
2021/05/08 02:45:39;;;;;;;10.60;5.95;;;;;;;7.96;56.04;101585.09;4970197;28;20409;-55
2021/05/08 02:48:07;;;;;;;9.35;5.63;;;;;;;7.92;55.87;101583.91;4953970;28;20054;-54
2021/05/08 02:50:42;;;;;;;8.10;5.40;;;;;;;7.89;56.10;101584.38;4954514;28;20039;-55
2021/05/08 02:53:11;;;;;;;9.40;5.28;;;;;;;7.87;55.94;101578.34;4956135;28;20142;-57
2021/05/08 02:55:39;;;;;;;10.18;5.57;;;;;;;7.86;55.76;101576.66;4955363;28;20418;-56
2021/05/08 02:58:06;;;;;;;9.02;5.25;;;;;;;7.84;56.33;101573.34;4954735;28;20093;-55
2021/05/08 03:00:36;;;;;;;12.20;5.72;;;;;;;7.78;56.58;101582.44;4954564;28;20074;-52
2021/05/08 03:03:08;;;;;;;9.63;5.10;;;;;;;7.76;56.68;101569.09;4954096;28;20061;-50
2021/05/08 03:05:37;;;;;;;9.48;5.43;;;;;;;7.75;56.74;101572.88;4945662;28;20099;-49
2021/05/08 03:08:11;;;;;;;8.07;4.82;;;;;;;7.71;56.79;101570.84;4966383;28;20039;-50
2021/05/08 03:10:39;;;;;;;11.20;5.70;;;;;;;7.65;56.45;101562.56;4954815;28;20479;-51
2021/05/08 03:13:06;;;;;;;8.68;5.30;;;;;;;7.53;56.64;101553.56;4953221;28;20051;-50
2021/05/08 03:15:35;;;;;;;9.73;4.90;;;;;;;7.46;57.42;101552.84;4969740;28;20466;-53
2021/05/08 03:18:04;;;;;;;8.20;4.90;;;;;;;7.45;57.07;101557.41;4953501;28;20043;-52
2021/05/08 03:20:32;;;;;;;12.77;4.93;;;;;;;7.52;57.08;101546.47;4969957;28;20051;-53
2021/05/08 03:22:59;;;;;;;8.65;4.85;;;;;;;7.59;56.97;101543.69;4953512;28;20051;-53
2021/05/08 03:25:27;;;;;;;9.13;4.38;;;;;;;7.66;56.32;101542.53;4954386;28;20114;-56
2021/05/08 03:27:55;;;;;;;7.93;4.97;;;;;;;7.72;55.40;101539.94;4969576;28;20059;-53
2021/05/08 03:30:25;;;;;;;9.20;4.60;;;;;;;7.72;55.19;101537.22;4953479;29;20050;-53
2021/05/08 03:32:56;;;;;;;9.45;4.75;;;;;;;7.71;55.50;101524.75;4954777;28;20483;-52
2021/05/08 03:35:24;;;;;;;9.07;5.22;;;;;;;7.64;54.89;101528.34;4969689;28;20125;-55
2021/05/08 03:37:52;;;;;;;8.75;4.80;;;;;;;7.57;55.41;101532.22;4969661;28;20083;-55
2021/05/08 03:40:20;;;;;;;8.57;4.90;;;;;;;7.57;55.86;101538.47;4940616;28;20047;-53
2021/05/08 03:42:47;;;;;;;11.70;4.97;;;;;;;7.61;55.21;101536.97;4954372;28;20399;-55
2021/05/08 03:45:14;;;;;;;11.52;5.55;;;;;;;7.65;54.96;101531.94;4954715;28;20039;-56
2021/05/08 03:47:42;;;;;;;9.10;4.85;;;;;;;7.67;54.93;101538.78;4954327;28;20164;-54
2021/05/08 03:50:09;;;;;;;9.05;5.03;;;;;;;7.69;55.28;101531.19;4954745;28;20043;-53
2021/05/08 03:52:37;;;;;;;8.95;5.32;;;;;;;7.69;54.87;101528.50;4954032;28;20169;-55
2021/05/08 03:55:04;;;;;;;8.68;5.00;;;;;;;7.68;54.67;101529.56;4954035;28;20043;-54
2021/05/08 03:57:31;;;;;;;10.43;5.05;;;;;;;7.69;54.97;101525.78;4954168;28;20062;-56
2021/05/08 03:59:59;;;;;;;8.85;5.32;;;;;;;7.72;54.51;101518.25;4954016;28;20039;-55
2021/05/08 04:02:26;;;;;;;8.18;4.80;;;;;;;7.72;54.41;101507.38;4953389;28;20129;-51
2021/05/08 04:04:53;;;;;;;8.23;4.85;;;;;;;7.69;54.88;101504.06;4954029;28;20078;-53
2021/05/08 04:07:20;;;;;;;8.93;5.40;;;;;;;7.67;54.56;101506.22;4954311;28;20043;-54
2021/05/08 04:09:48;;;;;;;9.55;5.13;;;;;;;7.61;54.57;101509.03;4953306;28;20051;-54
2021/05/08 04:12:15;;;;;;;9.93;5.15;;;;;;;7.59;55.23;101505.72;4954349;28;20035;-52
2021/05/08 04:14:42;;;;;;;9.10;5.30;;;;;;;7.61;54.78;101515.28;4953934;28;20055;-54
2021/05/08 04:17:09;;;;;;;9.82;5.32;;;;;;;7.64;54.81;101511.25;4954044;28;20078;-55
2021/05/08 04:19:37;;;;;;;10.55;5.50;;;;;;;7.69;54.87;101509.50;4953963;28;20505;-54
2021/05/08 04:22:04;;;;;;;10.18;5.25;;;;;;;7.72;54.22;101504.69;4954154;28;20549;-53
2021/05/08 04:24:31;;;;;;;8.48;5.00;;;;;;;7.75;53.83;101506.94;4953290;28;20044;-56
2021/05/08 04:26:58;;;;;;;9.45;5.30;;;;;;;7.78;53.92;101506.47;4953614;28;20059;-52
2021/05/08 04:29:25;;;;;;;8.50;4.80;;;;;;;7.83;53.91;101509.31;4954117;28;20108;-53
2021/05/08 04:31:53;;;;;;;8.40;5.00;;;;;;;7.85;53.65;101501.78;4953814;28;20529;-55
2021/05/08 04:34:20;;;;;;;10.90;5.13;;;;;;;7.86;53.21;101504.25;4953862;28;20098;-52
2021/05/08 04:36:47;;;;;;;8.73;4.53;;;;;;;7.90;53.74;101497.28;4968945;28;20051;-54
2021/05/08 04:39:14;;;;;;;8.07;4.70;;;;;;;7.94;52.78;101497.66;4953323;28;20051;-55
2021/05/08 04:41:43;;;;;;;9.20;4.93;;;;;;;7.95;52.94;101490.34;4953868;28;20050;-56
2021/05/08 04:44:10;;;;;;;7.68;4.65;;;;;;;7.97;52.56;101486.34;4953722;28;20502;-54
2021/05/08 04:46:37;;;;;;;9.57;4.35;;;;;;;7.97;52.82;101483.63;4954008;28;20051;-54
2021/05/08 04:49:04;;;;;;;9.13;4.43;;;;;;;7.98;52.58;101479.84;4953933;28;20436;-54
2021/05/08 04:51:31;;;;;;;7.90;4.30;;;;;;;7.96;52.57;101476.56;4953211;28;20047;-55
2021/05/08 04:53:58;;;;;;;7.57;4.60;;;;;;;7.96;52.84;101473.00;4953222;28;20099;-55
2021/05/08 04:56:26;;;;;;;8.73;4.60;;;;;;;7.98;52.99;101468.97;4952571;28;20459;-54
2021/05/08 04:58:53;;;;;;;9.75;4.90;;;;;;;8.03;52.47;101469.13;4953825;28;20051;-56
2021/05/08 05:01:20;;;;;;;7.78;4.78;;;;;;;8.06;52.64;101474.06;4953370;28;20055;-54
2021/05/08 05:03:47;;;;;;;8.98;4.68;;;;;;;8.09;52.41;101476.31;4953466;28;20055;-55
2021/05/08 05:06:14;;;;;;;7.50;4.53;;;;;;;8.10;52.56;101477.13;4953342;28;20043;-53
2021/05/08 05:08:42;;;;;;;13.32;5.80;;;;;;;8.10;51.87;101472.56;4953186;28;20050;-54
2021/05/08 05:11:09;;;;;;;8.93;5.07;;;;;;;8.11;52.26;101471.47;4953306;28;20152;-55
2021/05/08 05:13:37;;;;;;;9.13;5.40;;;;;;;8.12;52.23;101480.44;4954241;28;20559;-55
2021/05/08 05:16:04;;;;;;;9.55;5.68;;;;;;;8.15;52.68;101471.00;4955851;29;20051;-56
2021/05/08 05:18:32;;;;;;;9.52;5.50;;;;;;;8.11;52.88;101468.75;4956939;28;20075;-54
2021/05/08 05:20:59;;;;;;;8.63;5.38;;;;;;;8.13;53.59;101473.97;4956687;28;20101;-54
2021/05/08 05:23:27;;;;;;;11.20;5.68;;;;;;;8.16;52.68;101475.38;4956647;28;20051;-54
2021/05/08 05:25:56;;;;;;;9.05;5.47;;;;;;;8.16;52.94;101475.38;4956971;28;20039;-55
2021/05/08 05:28:28;;;;;;;8.07;5.47;;;;;;;8.16;52.38;101476.19;4971743;28;20055;-53
2021/05/08 05:30:56;;;;;;;11.10;6.00;;;;;;;8.17;53.14;101477.03;4956851;28;20043;-53
2021/05/08 05:33:23;;;;;;;9.15;5.70;;;;;;;8.17;53.51;101483.28;4956436;28;20056;-55
2021/05/08 05:35:54;;;;;;;10.52;5.22;;;;;;;8.20;53.20;101480.09;4956447;28;20508;-54
2021/05/08 05:38:22;;;;;;;9.30;5.53;;;;;;;8.23;53.26;101478.81;4956450;28;20047;-55
2021/05/08 05:40:52;;;;;;;12.02;5.88;;;;;;;8.24;53.35;101475.84;4956122;28;20047;-53
2021/05/08 05:43:20;;;;;;;9.63;5.30;;;;;;;8.23;53.08;101486.94;4956760;28;20039;-54
2021/05/08 05:45:47;;;;;;;8.55;5.22;;;;;;;8.23;53.67;101484.25;4956183;28;20454;-53
2021/05/08 05:48:14;;;;;;;9.85;5.20;;;;;;;8.22;53.53;101485.28;4956342;28;20047;-52
2021/05/08 05:50:43;;;;;;;7.75;4.70;;;;;;;8.24;52.97;101488.59;4956096;28;20039;-53
2021/05/08 05:53:10;;;;;;;9.63;5.85;;;;;;;8.29;52.77;101481.38;4970868;28;20046;-52
2021/05/08 05:55:37;;;;;;;10.18;5.95;;;;;;;8.31;53.50;101489.31;4971286;28;20050;-53
2021/05/08 05:58:04;;;;;;;10.80;6.10;;;;;;;8.33;53.32;101492.63;4956117;28;20498;-54
2021/05/08 06:00:32;;;;;;;8.18;4.82;;;;;;;8.37;52.76;101493.78;4971104;28;20055;-53
2021/05/08 06:02:59;;;;;;;9.98;5.82;;;;;;;8.37;52.97;101496.50;4956204;28;20506;-54
2021/05/08 06:05:26;;;;;;;9.73;5.40;;;;;;;8.37;53.40;101488.38;4955638;28;20597;-53
2021/05/08 06:07:53;;;;;;;12.05;5.95;;;;;;;8.38;53.12;101491.91;4955625;28;20125;-55
2021/05/08 06:10:20;;;;;;;9.98;6.25;;;;;;;8.41;53.26;101486.03;4956004;28;20047;-53
2021/05/08 06:12:47;;;;;;;9.80;5.38;;;;;;;8.40;52.77;101477.06;4955842;28;20083;-54
2021/05/08 06:15:15;;;;;;;11.13;5.93;;;;;;;8.39;52.90;101479.97;4955978;28;20402;-54
2021/05/08 06:17:42;;;;;;;10.77;5.80;;;;;;;8.43;53.73;101484.72;4955754;28;20137;-53
2021/05/08 06:20:10;;;;;;;13.20;5.45;;;;;;;8.46;53.08;101481.53;4955390;28;20046;-53
2021/05/08 06:22:37;;;;;;;12.25;6.03;;;;;;;8.47;53.25;101476.94;4956036;28;20043;-53
2021/05/08 06:25:05;;;;;;;15.27;6.50;;;;;;;8.45;53.19;101473.63;4954730;28;20048;-53
2021/05/08 06:27:35;;;;;;;12.35;5.43;;;;;;;8.50;53.47;101477.28;4954577;28;20513;-53
2021/05/08 06:30:02;;;;;;;8.35;5.00;;;;;;;8.52;54.03;101477.88;4955910;28;20058;-54
2021/05/08 06:32:29;;;;;;;9.35;5.63;;;;;;;8.49;53.05;101469.34;4955804;28;20106;-54
2021/05/08 06:34:57;;;;;;;9.73;5.50;;;;;;;8.45;53.82;101469.03;4955253;28;20039;-53
2021/05/08 06:37:24;;;;;;;12.82;6.78;;;;;;;8.45;54.10;101468.19;4954396;28;20179;-53
2021/05/08 06:39:52;;;;;;;9.90;4.90;;;;;;;8.48;54.13;101463.09;4955747;28;20055;-53
2021/05/08 06:42:19;;;;;;;10.93;5.97;;;;;;;8.49;54.55;101464.78;4955546;28;20043;-55
2021/05/08 06:44:46;;;;;;;11.60;5.93;;;;;;;8.51;54.75;101451.78;4955556;28;20071;-55
2021/05/08 06:47:16;;;;;;;12.98;6.78;;;;;;;8.53;54.77;101455.06;4955317;28;20384;-53
2021/05/08 06:49:43;;;;;;;9.90;6.82;;;;;;;8.51;54.18;101456.38;4955023;28;20578;-56
2021/05/08 06:52:11;;;;;;;13.52;6.97;;;;;;;8.51;54.42;101450.94;4955272;28;20439;-55
2021/05/08 06:54:38;;;;;;;10.75;6.78;;;;;;;8.52;54.75;101445.28;4955308;28;20039;-55
2021/05/08 06:57:06;;;;;;;8.93;5.68;;;;;;;8.55;54.61;101443.16;4955483;28;20078;-51
2021/05/08 06:59:33;;;;;;;11.20;6.65;;;;;;;8.55;54.79;101443.97;4955061;28;20043;-56
2021/05/08 07:02:01;;;;;;;12.23;6.85;;;;;;;8.57;54.64;101443.75;4955017;28;20055;-54
2021/05/08 07:04:29;;;;;;;20.42;6.05;;;;;;;8.58;55.02;101434.50;4954318;28;20098;-55
2021/05/08 07:06:56;;;;;;;10.07;6.32;;;;;;;8.58;53.94;101434.50;4955342;28;20045;-53
2021/05/08 07:09:23;;;;;;;13.88;7.03;;;;;;;8.60;53.87;101435.94;4954712;28;20043;-53
2021/05/08 07:11:51;;;;;;;11.50;6.32;;;;;;;8.62;54.20;101435.69;4954573;28;20047;-54
2021/05/08 07:14:18;;;;;;;12.40;6.65;;;;;;;8.62;53.78;101436.50;4955082;28;20098;-53
2021/05/08 07:16:45;;;;;;;11.32;6.47;;;;;;;8.62;54.02;101432.97;4954906;28;20079;-53
2021/05/08 07:19:12;;;;;;;11.60;7.00;;;;;;;8.63;54.38;101430.00;4954153;28;20439;-55
2021/05/08 07:21:40;;;;;;;13.27;7.13;;;;;;;8.66;54.87;101425.97;4954624;28;20459;-54
2021/05/08 07:24:08;;;;;;;13.60;6.85;;;;;;;8.67;54.82;101422.22;4954684;28;20526;-57
2021/05/08 07:26:35;;;;;;;11.80;6.70;;;;;;;8.69;54.22;101420.09;4954531;28;20554;-55
2021/05/08 07:29:03;;;;;;;10.57;6.20;;;;;;;8.76;55.00;101420.78;4954788;28;20050;-55
2021/05/08 07:31:30;;;;;;;12.13;6.55;;;;;;;8.80;55.26;101421.94;4954419;28;20040;-54
2021/05/08 07:34:00;;;;;;;10.75;6.30;;;;;;;8.84;54.69;101416.84;4951322;28;20493;-55
2021/05/08 07:36:28;;;;;;;12.35;6.45;;;;;;;8.85;54.59;101419.34;4953787;28;20074;-55
2021/05/08 07:38:56;;;;;;;11.07;5.85;;;;;;;8.89;53.63;101414.22;4954338;28;20493;-54
2021/05/08 07:41:24;;;;;;;10.13;5.85;;;;;;;8.92;53.95;101413.72;4953820;28;20055;-52
2021/05/08 07:43:51;;;;;;;11.60;5.97;;;;;;;8.96;53.91;101407.56;4953960;28;20497;-54
2021/05/08 07:46:18;;;;;;;15.27;5.60;;;;;;;9.01;53.61;101406.03;4953643;28;20474;-54
2021/05/08 07:48:45;;;;;;;16.85;5.88;;;;;;;9.05;53.05;101407.19;4954110;28;20055;-52
2021/05/08 07:51:12;;;;;;;12.30;5.50;;;;;;;9.09;53.10;101398.31;4953960;28;20054;-55
2021/05/08 07:53:39;;;;;;;10.70;4.80;;;;;;;9.15;52.57;101401.94;4953789;28;20043;-54
2021/05/08 07:56:13;;;;;;;11.30;5.52;;;;;;;9.21;52.27;101402.84;4487787;28;10001938;-56
2021/05/08 07:58:41;;;;;;;11.95;6.03;;;;;;;9.25;51.93;101396.69;4951824;28;20411;-56
2021/05/08 08:01:08;;;;;;;14.63;4.88;;;;;;;9.31;52.35;101394.91;4951562;28;20066;-54
2021/05/08 08:03:36;;;;;;;10.90;5.75;;;;;;;9.29;52.41;101381.53;4951861;28;20402;-55
2021/05/08 08:06:03;;;;;;;10.93;5.75;;;;;;;9.29;52.21;101375.28;4966976;28;20101;-54
2021/05/08 08:08:30;;;;;;;9.77;5.15;;;;;;;9.30;52.58;101377.72;4950904;28;20047;-55
2021/05/08 08:10:58;;;;;;;11.23;5.63;;;;;;;9.32;53.54;101370.16;4951306;28;20051;-56
2021/05/08 08:13:25;;;;;;;8.10;5.07;;;;;;;9.39;52.43;101370.81;4950367;28;20087;-54
2021/05/08 08:15:52;;;;;;;9.55;5.57;;;;;;;9.41;51.81;101367.88;4950806;28;20502;-55
2021/05/08 08:18:20;;;;;;;9.50;5.57;;;;;;;9.43;52.80;101370.31;4951113;28;20039;-56
2021/05/08 08:20:47;;;;;;;14.93;5.65;;;;;;;9.44;52.34;101374.69;4951208;28;20532;-54
2021/05/08 08:23:15;;;;;;;13.13;5.95;;;;;;;9.46;52.17;101364.41;4949540;28;20071;-52
2021/05/08 08:25:48;;;;;;;16.33;5.47;;;;;;;9.48;52.58;101370.44;4947063;28;20434;-53
2021/05/08 08:28:15;;;;;;;9.30;5.40;;;;;;;9.51;52.57;101365.31;4949087;28;20498;-53
2021/05/08 08:30:43;;;;;;;9.38;5.28;;;;;;;9.53;52.19;101367.78;4950635;28;20505;-54
2021/05/08 08:33:10;;;;;;;12.90;5.30;;;;;;;9.56;52.07;101359.94;4947282;28;20047;-55
2021/05/08 08:35:37;;;;;;;10.65;4.93;;;;;;;9.61;51.95;101353.75;4949892;29;20044;-55
2021/05/08 08:38:06;;;;;;;12.05;5.38;;;;;;;9.64;52.30;101352.44;4951714;28;20561;-55
2021/05/08 08:40:33;;;;;;;15.10;5.47;;;;;;;9.68;52.76;101340.81;4950508;28;20047;-55
2021/05/08 08:43:00;;;;;;;13.55;5.63;;;;;;;9.72;52.45;101344.69;4950043;29;20055;-55
2021/05/08 08:45:31;;;;;;;9.45;5.25;;;;;;;9.79;52.32;101331.72;4949672;29;20078;-56
2021/05/08 08:48:00;;;;;;;13.35;5.60;;;;;;;9.85;52.74;101339.97;4951446;28;20636;-55
2021/05/08 08:50:29;;;;;;;12.38;5.78;;;;;;;9.84;52.07;101333.69;4955180;28;20069;-56
2021/05/08 08:53:00;;;;;;;12.68;5.40;;;;;;;9.89;52.06;101336.50;4954922;28;20117;-55
2021/05/08 08:55:28;;;;;;;19.48;6.63;;;;;;;10.00;52.84;101332.00;4955074;28;20055;-54
2021/05/08 08:57:56;;;;;;;15.13;6.18;;;;;;;10.08;52.71;101334.31;4954562;28;20094;-56
2021/05/08 09:00:23;;;;;;;13.07;5.20;;;;;;;10.14;52.19;101322.38;4953354;29;20615;-56
2021/05/08 09:02:51;;;;;;;21.90;6.03;;;;;;;10.47;55.90;101317.91;4953966;29;20827;-57
2021/05/08 09:05:23;;;;;;;16.40;5.40;;;;;;;10.55;53.23;101309.28;4955064;28;20607;-56
2021/05/08 09:07:51;;;;;;;11.57;5.05;;;;;;;10.51;50.59;101310.88;4954491;28;20062;-57
2021/05/08 09:10:32;;;;;;;10.73;5.50;;;;;;;10.38;50.66;101316.72;4966161;28;20074;-55
2021/05/08 09:13:03;;;;;;;14.70;6.00;;;;;;;10.38;50.71;101314.00;4956241;28;20043;-55
2021/05/08 09:15:42;;;;;;;12.15;5.90;;;;;;;10.42;50.91;101301.53;4956730;28;20078;-54
2021/05/08 09:18:30;;;;;;;15.35;6.28;;;;;;;10.55;53.23;101301.09;4956750;28;20100;-56
2021/05/08 09:20:58;;;;;;;16.83;6.40;;;;;;;10.63;53.94;101292.50;4956745;28;20055;-53
2021/05/08 09:23:32;;;;;;;12.45;5.88;;;;;;;10.68;51.39;101282.69;4956589;28;20039;-53
2021/05/08 09:26:00;;;;;;;19.60;6.30;;;;;;;10.76;52.23;101291.25;4956369;28;20449;-54
2021/05/08 09:28:29;;;;;;;17.98;6.70;;;;;;;10.94;51.46;101291.94;4951990;29;20047;-56
2021/05/08 09:30:57;;;;;;;13.55;5.97;;;;;;;11.04;52.66;101281.97;4956139;28;20047;-55
2021/05/08 09:33:26;;;;;;;14.90;5.78;;;;;;;11.11;52.84;101283.63;4954765;29;20042;-50
2021/05/08 09:36:08;;;;;;;12.65;5.43;;;;;;;11.13;52.58;101281.47;4956780;28;20051;-53
2021/05/08 09:38:40;;;;;;;18.58;5.22;;;;;;;11.17;55.26;101277.16;4955940;28;20490;-54
2021/05/08 09:41:12;;;;;;;17.55;5.40;;;;;;;11.09;50.80;101276.56;4966565;28;20067;-53
2021/05/08 09:43:40;;;;;;;18.23;5.68;;;;;;;11.08;50.70;101271.34;4956466;28;20043;-56
2021/05/08 09:46:08;;;;;;;11.95;4.80;;;;;;;11.05;51.27;101269.97;4959295;28;20050;-56
2021/05/08 09:48:37;;;;;;;12.25;5.82;;;;;;;10.98;50.00;101263.91;4959483;28;20047;-53
2021/05/08 09:51:16;;;;;;;20.73;5.43;;;;;;;10.98;53.09;101266.63;4958798;28;20052;-57
2021/05/08 09:53:44;;;;;;;12.95;5.00;;;;;;;11.03;51.22;101263.13;4956321;28;20067;-53
2021/05/08 09:56:33;;;;;;;14.43;4.78;;;;;;;11.06;50.96;101263.44;4956263;28;20156;-55
2021/05/08 09:59:41;;;;;;;13.52;4.93;;;;;;;11.08;50.74;101257.72;4955955;28;20051;-56
2021/05/08 10:02:09;;;;;;;14.38;5.38;;;;;;;11.11;51.16;101261.81;4955311;28;20510;-56
2021/05/08 10:04:45;;;;;;;11.68;4.93;;;;;;;11.15;51.01;101257.50;4955310;28;20048;-54
2021/05/08 10:07:22;;;;;;;14.70;5.10;;;;;;;11.16;51.59;101259.97;4956077;28;20035;-56
2021/05/08 10:09:59;;;;;;;11.15;4.70;;;;;;;11.22;51.69;101255.38;4955134;28;20066;-54
2021/05/08 10:12:28;;;;;;;12.00;5.22;;;;;;;11.36;52.31;101253.03;4955517;28;20062;-57
2021/05/08 10:14:58;;;;;;;17.45;5.07;;;;;;;11.43;53.31;101245.44;4955560;28;20051;-53
2021/05/08 10:17:26;;;;;;;10.88;4.88;;;;;;;11.52;53.11;101250.13;4955495;28;20039;-53
2021/05/08 10:20:10;;;;;;;12.73;4.72;;;;;;;11.79;58.39;101243.72;4955570;28;20043;-57
2021/05/08 10:22:58;;;;;;;13.77;3.75;;;;;;;12.12;60.81;101230.75;4955573;28;20047;-55
2021/05/08 10:25:27;;;;;;;14.85;4.43;;;;;;;12.43;53.21;101242.59;4955390;28;20031;-53
2021/05/08 10:27:55;;;;;;;13.90;4.38;;;;;;;12.32;57.34;101241.75;4264166;28;10000594;-56
2021/05/08 10:30:31;;;;;;;14.75;4.90;;;;;;;12.46;56.63;101230.28;4950863;29;20478;-57
2021/05/08 10:32:59;;;;;;;11.40;4.90;;;;;;;12.51;57.36;101227.59;4951926;29;20054;-55
2021/05/08 10:35:46;;;;;;;14.32;4.75;;;;;;;12.60;58.01;101220.47;4953064;28;20043;-56
2021/05/08 10:38:34;;;;;;;12.18;3.88;;;;;;;12.98;56.77;101221.84;4953061;28;20094;-54
2021/05/08 10:41:05;;;;;;;12.27;3.97;;;;;;;12.78;54.77;101219.94;4951977;28;20548;-51
2021/05/08 10:43:37;;;;;;;12.55;3.85;;;;;;;12.76;52.64;101219.41;4953471;28;20039;-56
2021/05/08 10:46:04;;;;;;;9.88;3.90;;;;;;;12.75;52.32;101217.78;4953078;28;20038;-59
2021/05/08 10:48:32;;;;;;;8.98;3.42;;;;;;;12.67;56.80;101221.03;4952846;28;20043;-54
2021/05/08 10:51:00;;;;;;;7.38;3.28;;;;;;;12.57;52.21;101210.09;4950954;29;20426;-57
2021/05/08 10:53:41;;;;;;;12.23;3.45;;;;;;;12.21;55.54;101215.50;4953014;28;20142;-56
2021/05/08 10:56:32;;;;;;;10.90;3.80;;;;;;;12.36;58.57;101210.06;4952525;28;20140;-51
2021/05/08 10:59:07;;;;;;;15.38;3.53;;;;;;;12.57;58.30;101208.16;4952871;28;20498;-53
2021/05/08 11:01:40;;;;;;;7.40;3.17;;;;;;;12.54;56.91;101206.00;4952755;28;20039;-55
2021/05/08 11:04:08;;;;;;;12.52;3.65;;;;;;;12.28;55.96;101202.38;4952336;28;20051;-57
2021/05/08 11:06:35;;;;;;;9.40;3.30;;;;;;;12.00;57.20;101197.41;4952809;28;20035;-55
2021/05/08 11:09:05;;;;;;;9.48;3.58;;;;;;;11.97;58.71;101197.94;4952096;28;20039;-55
2021/05/08 11:11:45;;;;;;;6.82;2.97;;;;;;;11.93;61.48;101189.47;4951964;28;20424;-54
2021/05/08 11:14:12;;;;;;;6.20;3.20;;;;;;;12.11;58.57;101188.16;4967663;28;20047;-56
2021/05/08 11:16:56;;;;;;;6.22;2.97;;;;;;;12.10;57.39;101183.78;4952202;28;20046;-56
2021/05/08 11:19:25;;;;;;;8.48;3.33;;;;;;;11.96;59.40;101185.38;4952520;28;20051;-54
2021/05/08 11:22:06;;;;;;;7.35;3.20;;;;;;;11.81;59.67;101164.25;4952331;28;20501;-57
2021/05/08 11:24:38;;;;;;;5.88;3.00;;;;;;;11.60;58.49;101161.47;4950750;29;20102;-56
2021/05/08 11:27:22;;;;;;;6.85;3.00;;;;;;;11.48;59.66;101156.22;4951348;28;20466;-57
2021/05/08 11:29:50;;;;;;;8.65;3.15;;;;;;;11.42;60.04;101140.09;4945718;29;20796;-56
2021/05/08 11:32:17;;;;;;;6.60;3.20;;;;;;;11.34;60.43;101138.69;4952327;28;20039;-53
2021/05/08 11:34:45;;;;;;;5.80;3.40;;;;;;;11.32;62.08;101142.78;4952028;28;20157;-55
2021/05/08 11:37:14;;;;;;;7.35;3.20;;;;;;;11.27;62.41;101138.09;4951993;28;20051;-54